Time;durP1;ratioP1;P1;durP2;ratioP2;P2;SDS_P1;SDS_P2;PMS_P1;PMS_P2;Temp;Humidity;BMP_temperature;BMP_pressure;BME280_temperature;BME280_humidity;BME280_pressure;Samples;Min_cycle;Max_cycle;Signal;HPM_P1;HPM_P2
2021/03/17 00:01:06;;;;;;;20.80;15.75;;;;;;;1.87;82.29;98158.23;1750609;82;21199;-62
2021/03/17 00:03:53;;;;;;;24.72;16.87;;;;;;;1.87;82.22;98162.08;1750495;82;21070;-62
2021/03/17 00:06:39;;;;;;;27.30;16.77;;;;;;;1.86;82.29;98161.69;1750591;82;21119;-62
2021/03/17 00:09:25;;;;;;;22.02;15.40;;;;;;;1.85;82.07;98162.13;1750605;82;21071;-63
2021/03/17 00:12:11;;;;;;;21.57;15.03;;;;;;;1.85;82.14;98163.84;1750605;82;21095;-63
2021/03/17 00:14:57;;;;;;;27.55;17.60;;;;;;;1.86;81.98;98168.09;1750600;81;21702;-62
2021/03/17 00:17:44;;;;;;;30.32;17.67;;;;;;;1.84;81.95;98163.00;1750559;82;21071;-61
2021/03/17 00:20:31;;;;;;;31.05;19.00;;;;;;;1.87;81.99;98160.80;1750584;81;21131;-62
2021/03/17 00:23:18;;;;;;;23.10;15.93;;;;;;;1.90;81.83;98158.16;1750551;82;21080;-63
2021/03/17 00:26:05;;;;;;;25.37;16.35;;;;;;;1.89;81.73;98159.04;1750620;81;21063;-62
2021/03/17 00:28:51;;;;;;;21.50;16.70;;;;;;;1.89;81.65;98152.19;1750607;82;21217;-62
2021/03/17 00:31:38;;;;;;;21.95;16.80;;;;;;;1.87;81.84;98146.26;1750547;82;21169;-62
2021/03/17 00:34:24;;;;;;;27.40;17.75;;;;;;;1.88;81.77;98144.53;1750579;82;21059;-62
2021/03/17 00:37:10;;;;;;;21.93;15.45;;;;;;;1.85;81.90;98142.89;1750571;80;21127;-62
2021/03/17 00:39:56;;;;;;;22.42;17.17;;;;;;;1.87;81.92;98141.58;1750605;82;21063;-63
2021/03/17 00:42:42;;;;;;;22.37;17.02;;;;;;;1.87;81.89;98143.69;1750571;82;21370;-62
2021/03/17 00:45:28;;;;;;;25.25;17.70;;;;;;;1.86;81.91;98133.48;1750384;80;21174;-62
2021/03/17 00:48:15;;;;;;;25.02;15.68;;;;;;;1.84;81.93;98133.52;1750573;80;21047;-63
2021/03/17 00:50:44;;;;;;;25.90;16.07;;;;;;;1.84;82.00;98146.34;1749724;80;21083;-63
2021/03/17 00:53:12;;;;;;;23.25;16.62;;;;;;;1.84;82.05;98136.52;1750552;82;21127;-64
2021/03/17 00:55:40;;;;;;;23.55;17.15;;;;;;;1.84;82.05;98142.94;1750526;82;21611;-63
2021/03/17 00:58:12;;;;;;;26.42;17.60;;;;;;;1.83;82.06;98136.97;1749710;81;26660;-63
2021/03/17 01:00:39;;;;;;;19.60;16.40;;;;;;;1.82;81.93;98137.84;1750514;82;21138;-63
2021/03/17 01:03:08;;;;;;;22.10;16.02;;;;;;;1.83;81.87;98132.28;1750489;81;21158;-63
2021/03/17 01:05:36;;;;;;;27.75;17.12;;;;;;;1.83;81.82;98134.40;1750552;82;21047;-63
2021/03/17 01:08:04;;;;;;;20.05;16.52;;;;;;;1.80;81.80;98122.14;1750480;82;21339;-64
2021/03/17 01:10:39;;;;;;;21.82;17.40;;;;;;;1.78;81.97;98120.05;1750451;82;21092;-63
2021/03/17 01:13:06;;;;;;;24.15;16.75;;;;;;;1.77;81.89;98122.22;1750537;82;21063;-63
2021/03/17 01:15:34;;;;;;;21.65;16.52;;;;;;;1.75;81.92;98112.00;1750588;81;21083;-63
2021/03/17 01:18:02;;;;;;;27.87;18.40;;;;;;;1.73;81.80;98113.33;1750536;80;21147;-63
2021/03/17 01:20:30;;;;;;;23.62;16.67;;;;;;;1.72;81.90;98118.49;1750487;81;22625;-63
2021/03/17 01:22:58;;;;;;;27.70;16.95;;;;;;;1.67;81.96;98122.45;1750376;82;21215;-63
2021/03/17 01:25:34;;;;;;;22.77;16.00;;;;;;;1.67;82.01;98128.86;1750512;82;21071;-63
2021/03/17 01:28:04;;;;;;;24.20;17.12;;;;;;;1.67;82.05;98124.17;1750453;80;22750;-63
2021/03/17 01:30:35;;;;;;;24.50;17.92;;;;;;;1.67;82.04;98117.77;1750566;82;21570;-61
2021/03/17 01:33:03;;;;;;;25.95;19.05;;;;;;;1.66;82.09;98118.65;1750503;81;21331;-62
2021/03/17 01:35:31;;;;;;;21.37;16.73;;;;;;;1.65;82.08;98125.94;1750548;82;21130;-63
2021/03/17 01:37:59;;;;;;;23.00;16.80;;;;;;;1.65;82.10;98120.38;1750492;82;21127;-62
2021/03/17 01:40:28;;;;;;;24.37;17.82;;;;;;;1.63;81.97;98127.26;1750496;82;21084;-62
2021/03/17 01:42:56;;;;;;;26.85;17.73;;;;;;;1.63;82.08;98127.70;1750600;82;21468;-63
2021/03/17 01:45:24;;;;;;;22.27;16.55;;;;;;;1.64;81.89;98123.81;1750330;81;21898;-63
2021/03/17 01:47:52;;;;;;;22.82;17.42;;;;;;;1.63;81.56;98128.54;1750482;82;21174;-63
2021/03/17 01:50:24;;;;;;;24.27;16.20;;;;;;;1.62;81.46;98119.17;1750500;82;21115;-63
2021/03/17 01:52:53;;;;;;;22.42;16.25;;;;;;;1.61;81.48;98114.08;1750524;80;21134;-63
2021/03/17 01:55:23;;;;;;;20.95;16.87;;;;;;;1.60;81.60;98116.28;1750591;82;21107;-63
2021/03/17 01:57:50;;;;;;;27.87;16.93;;;;;;;1.60;81.38;98117.55;1750446;82;21342;-64
2021/03/17 02:00:20;;;;;;;21.00;15.90;;;;;;;1.58;81.29;98122.72;1750429;82;21171;-64
2021/03/17 02:02:50;;;;;;;22.27;15.20;;;;;;;1.57;81.28;98120.20;1750469;82;21631;-62
2021/03/17 02:05:25;;;;;;;18.62;14.18;;;;;;;1.56;81.29;98121.92;1750489;82;21682;-63
2021/03/17 02:08:06;;;;;;;22.58;16.75;;;;;;;1.58;81.39;98123.16;1873654;75;22662;-62
2021/03/17 02:10:34;;;;;;;21.42;14.15;;;;;;;1.53;81.44;98130.12;1841654;78;21588;-63
2021/03/17 02:13:25;;;;;;;18.25;13.45;;;;;;;1.51;81.44;98125.04;1841598;77;21361;-62
2021/03/17 02:16:33;;;;;;;18.55;13.22;;;;;;;1.50;81.38;98119.95;1841674;78;21597;-62
2021/03/17 02:19:50;;;;;;;16.62;13.72;;;;;;;1.44;81.52;98115.83;1841595;78;21017;-63
2021/03/17 02:22:29;;;;;;;16.35;13.28;;;;;;;1.40;81.71;98121.09;1820831;78;21068;-63
2021/03/17 02:25:23;;;;;;;19.12;13.80;;;;;;;1.34;81.83;98124.20;1808556;79;20943;-63
2021/03/17 02:28:19;;;;;;;27.45;13.62;;;;;;;1.32;81.93;98115.72;1808689;78;21375;-63
2021/03/17 02:31:28;;;;;;;22.87;14.07;;;;;;;1.31;82.08;98110.19;1808489;79;20962;-63
2021/03/17 02:34:03;;;;;;;19.98;14.15;;;;;;;1.30;82.23;98121.31;1808550;79;21549;-63
2021/03/17 02:36:54;;;;;;;22.73;12.85;;;;;;;1.27;82.40;98111.59;1805022;79;21081;-63
2021/03/17 02:39:53;;;;;;;20.35;13.40;;;;;;;1.27;82.46;98102.62;1808818;79;21172;-63
2021/03/17 02:42:31;;;;;;;26.30;15.55;;;;;;;1.24;82.87;98104.81;1808522;79;21185;-63
2021/03/17 02:45:10;;;;;;;21.60;13.43;;;;;;;1.22;82.81;98115.53;1808481;78;21077;-63
2021/03/17 02:48:09;;;;;;;18.20;12.82;;;;;;;1.20;82.91;98112.64;1808547;79;21054;-63
2021/03/17 02:50:39;;;;;;;18.15;13.95;;;;;;;1.19;82.96;98100.72;1808512;79;21062;-62
2021/03/17 02:53:06;;;;;;;19.57;14.10;;;;;;;1.17;83.12;98104.59;1780086;79;21533;-63
2021/03/17 02:55:38;;;;;;;18.67;12.73;;;;;;;1.17;83.13;98114.00;1808505;79;21363;-62
2021/03/17 02:58:06;;;;;;;18.32;12.68;;;;;;;1.17;83.24;98099.91;1808040;78;21160;-62
2021/03/17 03:00:33;;;;;;;16.27;12.13;;;;;;;1.16;83.20;98102.07;1808473;79;21172;-62
2021/03/17 03:03:01;;;;;;;21.70;13.72;;;;;;;1.16;83.38;98105.47;1808498;79;21049;-62
2021/03/17 03:05:31;;;;;;;20.77;14.23;;;;;;;1.16;83.37;98101.63;1808482;79;21053;-62
2021/03/17 03:07:59;;;;;;;27.67;14.43;;;;;;;1.15;83.40;98098.67;1808332;79;21378;-63
2021/03/17 03:10:30;;;;;;;19.67;12.78;;;;;;;1.17;83.39;98101.19;1808523;79;21572;-63
2021/03/17 03:12:58;;;;;;;24.32;13.28;;;;;;;1.16;83.17;98100.35;1808472;79;21450;-62
2021/03/17 03:15:28;;;;;;;27.75;13.55;;;;;;;1.15;83.21;98111.47;1808587;79;21470;-63
2021/03/17 03:17:57;;;;;;;21.62;13.43;;;;;;;1.15;83.27;98102.95;1808293;79;21129;-62
2021/03/17 03:20:25;;;;;;;17.98;12.25;;;;;;;1.14;83.15;98093.14;1807895;78;21188;-63
2021/03/17 03:22:53;;;;;;;15.20;11.45;;;;;;;1.16;83.08;98104.63;1807806;78;21176;-62
2021/03/17 03:25:21;;;;;;;18.60;12.82;;;;;;;1.16;82.94;98102.91;1807965;78;21483;-62
2021/03/17 03:27:49;;;;;;;21.37;13.62;;;;;;;1.15;82.90;98110.63;1807844;79;21207;-62
2021/03/17 03:30:22;;;;;;;18.52;12.63;;;;;;;1.14;83.06;98105.95;1807917;79;21537;-63
2021/03/17 03:32:49;;;;;;;17.37;12.28;;;;;;;1.13;83.09;98105.98;1808076;79;21419;-62
2021/03/17 03:35:20;;;;;;;21.33;13.22;;;;;;;1.12;83.01;98106.42;1807836;79;21549;-62
2021/03/17 03:37:48;;;;;;;17.12;12.95;;;;;;;1.12;83.11;98108.98;1807908;78;21053;-64
2021/03/17 03:40:20;;;;;;;17.82;11.48;;;;;;;1.12;82.95;98106.42;1807943;78;21144;-63
2021/03/17 03:42:48;;;;;;;23.42;13.95;;;;;;;1.12;82.86;98108.14;1808143;78;21442;-62
2021/03/17 03:45:19;;;;;;;14.83;11.22;;;;;;;1.11;82.87;98102.18;1807986;79;22287;-63
2021/03/17 03:47:47;;;;;;;17.17;11.75;;;;;;;1.10;82.75;98104.78;1807835;79;21109;-62
2021/03/17 03:50:19;;;;;;;15.43;12.20;;;;;;;1.07;82.74;98106.13;1807874;78;21125;-62
2021/03/17 03:53:23;;;;;;;18.07;12.07;;;;;;;1.06;82.80;98103.17;1807902;79;21141;-62
2021/03/17 03:56:02;;;;;;;15.08;10.85;;;;;;;1.07;82.81;98114.66;1800910;79;21478;-61
2021/03/17 03:58:50;;;;;;;20.75;12.75;;;;;;;1.06;82.85;98096.77;1807933;79;22810;-61
2021/03/17 04:01:25;;;;;;;20.45;13.28;;;;;;;1.01;82.92;98095.16;1807829;78;21077;-61
2021/03/17 04:04:01;;;;;;;15.50;12.95;;;;;;;1.00;83.09;98097.75;1789404;79;21141;-62
2021/03/17 04:06:29;;;;;;;20.88;13.45;;;;;;;0.98;83.17;98102.09;1808325;79;21065;-62
2021/03/17 04:08:58;;;;;;;18.75;11.68;;;;;;;0.97;83.33;98096.58;1787139;79;21049;-62
2021/03/17 04:11:26;;;;;;;18.98;12.63;;;;;;;0.95;83.41;98091.49;1813570;79;21201;-62
2021/03/17 04:13:54;;;;;;;17.92;12.70;;;;;;;0.95;83.54;98099.17;1813489;79;21010;-62
2021/03/17 04:16:22;;;;;;;23.87;13.22;;;;;;;0.96;83.45;98089.77;1813572;79;21062;-62
2021/03/17 04:18:50;;;;;;;23.80;12.75;;;;;;;0.96;83.49;98096.17;1813543;79;21514;-62
2021/03/17 04:21:25;;;;;;;25.02;13.68;;;;;;;0.98;83.57;98090.58;1813629;77;21049;-62
2021/03/17 04:23:57;;;;;;;20.72;13.75;;;;;;;0.97;83.63;98091.02;1813666;79;22256;-62
2021/03/17 04:26:24;;;;;;;19.65;12.50;;;;;;;0.96;83.63;98090.62;1813488;79;21143;-62
2021/03/17 04:28:52;;;;;;;26.37;15.03;;;;;;;0.95;83.68;98094.05;1761377;79;21068;-62
2021/03/17 04:31:20;;;;;;;20.85;14.15;;;;;;;0.94;83.86;98087.25;1813523;79;21077;-62
2021/03/17 04:33:49;;;;;;;19.23;13.72;;;;;;;0.95;83.90;98085.09;1813564;79;21053;-62
2021/03/17 04:36:16;;;;;;;19.73;12.90;;;;;;;0.95;83.88;98086.38;1813520;79;21359;-62
2021/03/17 04:38:44;;;;;;;20.00;13.55;;;;;;;0.97;83.87;98092.30;1813484;78;21187;-62
2021/03/17 04:41:11;;;;;;;19.80;14.43;;;;;;;0.99;83.82;98094.38;1786714;79;21485;-62
2021/03/17 04:43:40;;;;;;;21.10;14.15;;;;;;;0.99;83.78;98088.42;1813553;78;21489;-62
2021/03/17 04:46:10;;;;;;;18.20;13.25;;;;;;;0.99;83.68;98083.30;1813537;79;21493;-62
2021/03/17 04:48:41;;;;;;;19.60;13.48;;;;;;;1.01;83.72;98091.31;1813532;79;21184;-63
2021/03/17 04:51:09;;;;;;;25.60;15.32;;;;;;;1.05;83.69;98093.37;1813471;78;20899;-61
2021/03/17 04:53:37;;;;;;;25.70;15.15;;;;;;;1.07;83.58;98094.61;1813631;79;21101;-62
2021/03/17 04:56:06;;;;;;;20.10;13.10;;;;;;;1.08;83.48;98092.02;1813490;79;21133;-63
2021/03/17 04:58:37;;;;;;;24.18;15.15;;;;;;;1.09;83.34;98092.41;1813553;78;21144;-63
2021/03/17 05:01:09;;;;;;;28.30;16.17;;;;;;;1.11;83.30;98093.66;1813223;78;21220;-63
2021/03/17 05:03:37;;;;;;;26.10;16.57;;;;;;;1.10;83.13;98102.22;1813728;78;21596;-63
2021/03/17 05:06:05;;;;;;;32.78;14.98;;;;;;;1.11;83.22;98094.94;1813515;79;21097;-63
2021/03/17 05:08:33;;;;;;;18.30;13.85;;;;;;;1.13;83.15;98085.06;1808826;79;21180;-63
2021/03/17 05:11:01;;;;;;;20.70;14.73;;;;;;;1.15;82.95;98084.59;1807917;79;21481;-62
2021/03/17 05:13:29;;;;;;;21.87;14.35;;;;;;;1.17;83.01;98089.67;1807821;78;21380;-63
2021/03/17 05:15:58;;;;;;;19.10;15.60;;;;;;;1.20;82.87;98085.75;1807737;79;21084;-63
2021/03/17 05:18:26;;;;;;;18.62;14.53;;;;;;;1.21;82.77;98092.09;1807823;78;20994;-62
2021/03/17 05:20:54;;;;;;;26.80;14.78;;;;;;;1.24;82.82;98093.73;1807742;78;21105;-62
2021/03/17 05:23:22;;;;;;;24.37;14.85;;;;;;;1.25;82.57;98102.66;1807831;79;21049;-62
2021/03/17 05:25:51;;;;;;;22.67;16.57;;;;;;;1.27;82.61;98091.94;1807804;79;21356;-62
2021/03/17 05:28:19;;;;;;;19.37;15.00;;;;;;;1.29;82.62;98103.42;1753841;79;21489;-62
2021/03/17 05:30:50;;;;;;;18.82;13.53;;;;;;;1.32;82.60;98099.51;1807780;79;21057;-63
2021/03/17 05:33:24;;;;;;;21.33;14.95;;;;;;;1.34;82.36;98101.16;1807822;78;21054;-63
2021/03/17 05:35:52;;;;;;;26.68;15.93;;;;;;;1.35;82.47;98096.43;1779082;79;21510;-63
2021/03/17 05:38:19;;;;;;;30.43;16.85;;;;;;;1.37;82.31;98097.67;1807802;79;21423;-63
2021/03/17 05:40:46;;;;;;;23.45;15.35;;;;;;;1.37;82.09;98102.80;1807672;79;21108;-63
2021/03/17 05:43:14;;;;;;;23.60;15.40;;;;;;;1.39;82.21;98110.00;1807754;79;21120;-63
2021/03/17 05:45:42;;;;;;;21.90;14.70;;;;;;;1.42;82.00;98112.89;1807759;79;21038;-63
2021/03/17 05:48:11;;;;;;;19.73;16.07;;;;;;;1.43;81.98;98110.73;1807786;79;21073;-63
2021/03/17 05:50:41;;;;;;;21.33;16.37;;;;;;;1.44;82.10;98111.98;1807792;78;22429;-64
2021/03/17 05:53:09;;;;;;;20.82;14.83;;;;;;;1.47;82.09;98117.03;1807719;79;21081;-62
2021/03/17 05:55:37;;;;;;;51.58;26.02;;;;;;;1.48;81.78;98116.14;1807771;78;21152;-62
2021/03/17 05:58:06;;;;;;;21.25;15.70;;;;;;;1.51;81.67;98121.63;1807857;79;21552;-62
2021/03/17 06:00:33;;;;;;;24.77;15.95;;;;;;;1.49;81.54;98125.95;1807768;79;21170;-63
2021/03/17 06:03:04;;;;;;;24.18;15.78;;;;;;;1.47;81.61;98118.30;1806010;78;21362;-64
2021/03/17 06:05:33;;;;;;;17.20;14.58;;;;;;;1.48;81.69;98125.55;1777897;79;21168;-65
2021/03/17 06:08:13;;;;;;;20.88;15.60;;;;;;;1.49;81.57;98122.95;1806739;78;21176;-63
2021/03/17 06:10:41;;;;;;;21.48;15.85;;;;;;;1.51;81.63;98126.76;1807657;79;21501;-65
2021/03/17 06:13:13;;;;;;;21.73;16.48;;;;;;;1.52;81.51;98139.97;1807877;79;21053;-70
2021/03/17 06:15:52;;;;;;;20.88;15.72;;;;;;;1.52;81.37;98135.69;1807900;78;21366;-63
2021/03/17 06:18:42;;;;;;;26.30;15.55;;;;;;;1.57;81.27;98138.98;1873496;75;22392;-61
2021/03/17 06:21:17;;;;;;;24.72;15.10;;;;;;;1.55;81.33;98129.65;1837547;78;21557;-63
2021/03/17 06:23:41;;;;;;;22.55;15.18;;;;;;;1.55;81.20;98134.77;1807989;79;21372;-61
2021/03/17 06:26:09;;;;;;;18.67;13.90;;;;;;;1.57;81.16;98130.45;1808391;78;21022;-61
2021/03/17 06:28:39;;;;;;;24.30;13.32;;;;;;;1.56;81.12;98132.17;1808460;79;21077;-62
2021/03/17 06:31:07;;;;;;;19.77;14.03;;;;;;;1.57;81.01;98130.45;1808471;78;21048;-62
2021/03/17 06:33:42;;;;;;;18.12;12.90;;;;;;;1.58;80.93;98137.25;1808514;79;21044;-62
2021/03/17 06:36:16;;;;;;;21.80;14.28;;;;;;;1.58;80.81;98138.09;1808681;79;21528;-62
2021/03/17 06:38:46;;;;;;;21.50;13.30;;;;;;;1.59;80.97;98133.81;1808401;79;20934;-61
2021/03/17 06:41:17;;;;;;;15.98;12.33;;;;;;;1.60;81.07;98134.22;1808402;79;21072;-63
2021/03/17 06:43:49;;;;;;;17.23;13.45;;;;;;;1.61;81.04;98135.42;1808441;79;21128;-61
2021/03/17 06:46:18;;;;;;;17.57;13.13;;;;;;;1.62;81.09;98134.98;1808585;79;21577;-62
2021/03/17 06:48:48;;;;;;;20.77;13.90;;;;;;;1.65;80.98;98129.78;1806417;78;21360;-61
2021/03/17 06:51:19;;;;;;;17.30;13.08;;;;;;;1.67;80.91;98130.14;1808464;78;21065;-62
2021/03/17 06:53:55;;;;;;;24.27;13.08;;;;;;;1.70;80.88;98135.19;1780346;78;21049;-62
2021/03/17 06:56:32;;;;;;;22.75;13.75;;;;;;;1.73;80.70;98133.83;1808303;79;21144;-61
2021/03/17 06:59:05;;;;;;;22.42;14.33;;;;;;;1.73;80.71;98140.23;1808297;79;21105;-61
2021/03/17 07:01:43;;;;;;;17.30;12.90;;;;;;;1.74;80.86;98137.23;1808512;79;22284;-61
2021/03/17 07:04:21;;;;;;;19.40;13.70;;;;;;;1.77;80.72;98135.88;1808297;78;21601;-61
2021/03/17 07:06:52;;;;;;;20.75;12.73;;;;;;;1.81;80.81;98136.61;1781534;79;21629;-62
2021/03/17 07:09:25;;;;;;;21.37;14.30;;;;;;;1.84;80.45;98137.81;1806956;78;21202;-61
2021/03/17 07:12:11;;;;;;;18.17;14.00;;;;;;;1.82;80.28;98137.84;1808548;79;21105;-62
2021/03/17 07:14:44;;;;;;;21.30;14.07;;;;;;;1.81;80.21;98138.73;1808214;78;22280;-63
2021/03/17 07:17:28;;;;;;;22.82;13.55;;;;;;;1.85;80.20;98133.08;1805243;79;21124;-61
2021/03/17 07:19:56;;;;;;;21.95;15.48;;;;;;;1.86;80.20;98130.48;1800554;78;21489;-60
2021/03/17 07:22:25;;;;;;;23.02;17.62;;;;;;;1.88;80.23;98140.25;1800319;78;21044;-59
2021/03/17 07:25:02;;;;;;;25.15;13.75;;;;;;;1.90;80.35;98125.67;1784692;79;21128;-61
2021/03/17 07:27:32;;;;;;;19.48;13.13;;;;;;;1.95;80.34;98120.41;1800537;79;21135;-60
2021/03/17 07:30:10;;;;;;;21.33;12.65;;;;;;;2.00;80.01;98130.92;1800042;79;21536;-62
2021/03/17 07:33:07;;;;;;;22.65;14.00;;;;;;;2.01;79.78;98130.48;1799493;79;21187;-62
2021/03/17 07:35:37;;;;;;;20.62;13.72;;;;;;;2.04;79.60;98118.86;1799835;78;21048;-61
2021/03/17 07:38:12;;;;;;;15.40;11.97;;;;;;;2.07;79.50;98120.89;1799888;78;21064;-61
2021/03/17 07:40:45;;;;;;;19.25;12.58;;;;;;;2.09;79.34;98128.55;1799981;78;22107;-61
2021/03/17 07:43:14;;;;;;;21.02;12.33;;;;;;;2.14;79.35;98129.70;1798251;79;21179;-64
2021/03/17 07:45:43;;;;;;;14.73;12.80;;;;;;;2.18;79.28;98122.32;1792749;78;21148;-65
2021/03/17 07:48:12;;;;;;;22.20;12.35;;;;;;;2.22;79.00;98126.02;1795657;79;21179;-67
2021/03/17 07:50:43;;;;;;;19.55;11.70;;;;;;;2.26;78.96;98123.76;1781843;79;21148;-62
2021/03/17 07:53:23;;;;;;;20.82;12.93;;;;;;;2.32;78.86;98117.17;1796682;78;21456;-67
2021/03/17 07:55:56;;;;;;;18.90;12.58;;;;;;;2.39;78.31;98131.95;1796699;79;21628;-61
2021/03/17 07:58:24;;;;;;;16.97;12.98;;;;;;;2.38;78.37;98121.29;1798779;79;21187;-67
2021/03/17 08:00:52;;;;;;;15.53;11.35;;;;;;;2.37;78.80;98129.43;1797022;79;21163;-63
2021/03/17 08:03:21;;;;;;;27.05;12.50;;;;;;;2.39;78.43;98125.09;1796574;79;21317;-63
2021/03/17 08:05:51;;;;;;;18.57;13.43;;;;;;;2.40;78.45;98125.46;1798179;79;21361;-61
2021/03/17 08:08:20;;;;;;;20.75;13.03;;;;;;;2.45;78.30;98132.19;1799910;78;21159;-62
2021/03/17 08:10:49;;;;;;;18.00;13.20;;;;;;;2.43;78.06;98121.52;1799849;78;21187;-62
2021/03/17 08:13:18;;;;;;;18.10;13.28;;;;;;;2.45;78.12;98119.36;1799973;79;21057;-62
2021/03/17 08:15:48;;;;;;;23.57;12.78;;;;;;;2.47;78.23;98126.13;1799968;78;21520;-60
2021/03/17 08:18:33;;;;;;;21.30;14.30;;;;;;;2.48;77.89;98119.27;1782422;79;21206;-61
2021/03/17 08:21:04;;;;;;;17.92;13.72;;;;;;;2.50;78.17;98118.78;1788332;78;21356;-62
2021/03/17 08:23:48;;;;;;;22.42;13.32;;;;;;;2.55;78.01;98120.77;1797074;78;21156;-61
2021/03/17 08:26:25;;;;;;;;;;;;;;;2.58;77.93;98116.39;1799998;78;21065;-60
2021/03/17 08:28:54;;;;;;;26.75;14.68;;;;;;;2.63;77.50;98113.21;1797482;78;20511;-62
2021/03/17 08:31:42;;;;;;;20.57;13.53;;;;;;;2.62;77.42;98114.09;1797392;79;21358;-61
2021/03/17 08:34:25;;;;;;;18.10;13.45;;;;;;;2.63;77.26;98109.80;1797228;78;21057;-59
2021/03/17 08:37:10;;;;;;;20.00;12.70;;;;;;;2.72;77.42;98117.23;1797171;78;21147;-63
2021/03/17 08:39:40;;;;;;;17.62;13.08;;;;;;;2.80;77.12;98112.67;1797163;79;22585;-61
2021/03/17 08:42:29;;;;;;;18.02;14.20;;;;;;;2.92;77.45;98110.17;1794105;78;21174;-63
2021/03/17 08:45:04;;;;;;;22.50;14.50;;;;;;;3.02;76.77;98130.36;1777775;80;21392;-62
2021/03/17 08:47:44;;;;;;;20.85;14.60;;;;;;;3.06;76.29;98109.27;1794649;79;21199;-63
2021/03/17 08:50:30;;;;;;;21.73;13.53;;;;;;;3.07;76.33;98105.37;1797009;79;21136;-62
2021/03/17 08:52:57;;;;;;;20.27;14.75;;;;;;;3.13;75.99;98111.20;1794333;78;21030;-61
2021/03/17 08:55:37;;;;;;;25.00;14.68;;;;;;;3.11;76.10;98109.97;1797002;79;21485;-61
2021/03/17 08:58:23;;;;;;;21.40;14.25;;;;;;;3.14;76.15;98116.73;1796805;78;22423;-60
2021/03/17 09:01:01;;;;;;;17.45;13.45;;;;;;;3.15;75.93;98106.41;1761015;80;21119;-61
2021/03/17 09:03:39;;;;;;;20.52;13.93;;;;;;;3.19;75.77;98118.27;1793652;78;21171;-62
2021/03/17 09:06:27;;;;;;;21.07;15.48;;;;;;;3.20;75.86;98108.36;1765804;80;21105;-61
2021/03/17 09:09:18;;;;;;;32.53;14.98;;;;;;;3.28;75.68;98112.80;1765816;81;21056;-61
2021/03/17 09:11:50;;;;;;;19.37;13.40;;;;;;;3.35;75.79;98105.73;1765899;81;22352;-62
2021/03/17 09:14:27;;;;;;;19.32;13.98;;;;;;;3.41;75.38;98115.34;1766032;80;21077;-61
2021/03/17 09:17:27;;;;;;;23.42;14.80;;;;;;;3.40;74.87;98114.95;1775986;80;21548;-62
2021/03/17 09:20:07;;;;;;;23.45;15.00;;;;;;;3.37;75.32;98113.79;1765821;80;21069;-62
2021/03/17 09:22:51;;;;;;;22.42;14.38;;;;;;;3.34;74.82;98112.61;1765703;79;21068;-61
2021/03/17 09:25:47;;;;;;;20.20;12.40;;;;;;;3.24;75.40;98115.08;1766250;80;21616;-63
2021/03/17 09:28:34;;;;;;;21.42;14.63;;;;;;;3.18;75.66;98120.44;1765719;81;21152;-62
2021/03/17 09:31:06;;;;;;;22.82;15.30;;;;;;;3.14;75.89;98119.30;1765921;80;21541;-63
2021/03/17 09:33:37;;;;;;;20.62;14.70;;;;;;;3.09;75.79;98120.29;1765497;80;21144;-62
2021/03/17 09:36:10;;;;;;;17.82;13.72;;;;;;;3.07;76.13;98118.66;1751052;80;21121;-62
2021/03/17 09:38:44;;;;;;;21.73;12.70;;;;;;;3.07;76.20;98124.63;1765162;80;21645;-61
2021/03/17 09:41:23;;;;;;;29.20;14.28;;;;;;;3.07;76.37;98126.36;1765838;81;21560;-62
2021/03/17 09:44:04;;;;;;;23.65;14.47;;;;;;;3.04;76.41;98127.73;1765384;80;21556;-61
2021/03/17 09:46:42;;;;;;;24.00;14.40;;;;;;;3.02;76.57;98140.63;1765866;80;21167;-62
2021/03/17 09:49:16;;;;;;;19.05;13.75;;;;;;;3.05;76.73;98131.55;1765828;81;21589;-61
2021/03/17 09:51:51;;;;;;;21.27;14.40;;;;;;;3.12;76.84;98127.06;1765340;80;21337;-61
2021/03/17 09:54:22;;;;;;;27.75;15.45;;;;;;;3.17;76.44;98129.48;1765949;80;21205;-61
2021/03/17 09:56:53;;;;;;;29.18;19.92;;;;;;;3.26;76.34;98137.71;1765589;80;21132;-61
2021/03/17 09:59:26;;;;;;;19.45;14.63;;;;;;;3.31;76.27;98124.27;1765679;80;21179;-62
2021/03/17 10:02:14;;;;;;;19.67;14.15;;;;;;;3.38;75.99;98124.47;1765215;81;21198;-62
2021/03/17 10:04:43;;;;;;;20.35;14.40;;;;;;;3.43;75.53;98135.85;1765113;81;21431;-62
2021/03/17 10:07:18;;;;;;;21.52;15.20;;;;;;;3.46;75.42;98141.73;1765642;81;21132;-60
2021/03/17 10:09:46;;;;;;;22.58;16.02;;;;;;;3.46;75.37;98134.47;1765415;80;21065;-61
2021/03/17 10:12:18;;;;;;;23.52;15.85;;;;;;;3.46;75.34;98134.47;1765754;81;21055;-61
2021/03/17 10:14:56;;;;;;;20.37;14.53;;;;;;;3.43;75.27;98140.55;1766061;81;21060;-62
2021/03/17 10:17:26;;;;;;;21.52;15.05;;;;;;;3.39;75.45;98136.88;1765856;80;22468;-61
2021/03/17 10:19:57;;;;;;;23.65;15.13;;;;;;;3.38;75.52;98136.03;1775786;80;21081;-62
2021/03/17 10:22:28;;;;;;;24.45;16.77;;;;;;;3.35;75.86;98131.44;1775921;79;21081;-61
2021/03/17 10:25:02;;;;;;;22.20;15.78;;;;;;;3.39;76.17;98131.29;1776062;80;21466;-61
2021/03/17 10:27:37;;;;;;;22.42;15.32;;;;;;;3.45;75.55;98131.06;1775376;80;21124;-62
2021/03/17 10:30:30;;;;;;;21.62;13.88;;;;;;;3.48;74.96;98139.11;1775894;80;21435;-60
2021/03/17 10:33:02;;;;;;;24.82;15.95;;;;;;;3.48;74.37;98131.41;1738507;82;21102;-61
2021/03/17 10:35:30;;;;;;;22.00;16.65;;;;;;;3.50;74.37;98142.92;1705515;84;21159;-61
2021/03/17 10:38:00;;;;;;;41.80;31.02;;;;;;;3.48;73.89;98135.26;1705549;84;21594;-62
2021/03/17 10:40:29;;;;;;;24.02;17.73;;;;;;;3.48;73.92;98137.83;1705633;84;21556;-62
2021/03/17 10:43:09;;;;;;;29.25;15.72;;;;;;;3.50;73.90;98144.20;1705504;82;22292;-62
2021/03/17 10:45:52;;;;;;;28.92;17.17;;;;;;;3.52;73.74;98147.56;1705427;84;21158;-61
2021/03/17 10:48:26;;;;;;;25.75;15.93;;;;;;;3.53;74.15;98144.11;1705507;84;21114;-62
2021/03/17 10:50:55;;;;;;;22.45;14.40;;;;;;;3.56;74.27;98137.58;1705467;84;21091;-61
2021/03/17 10:53:27;;;;;;;23.05;15.23;;;;;;;3.59;73.93;98147.31;1705402;84;21095;-59
2021/03/17 10:55:57;;;;;;;29.77;15.83;;;;;;;3.59;74.04;98146.03;1705526;82;21520;-62
2021/03/17 10:58:30;;;;;;;29.32;16.67;;;;;;;3.60;74.33;98157.96;1705379;84;21516;-60
2021/03/17 11:01:02;;;;;;;23.22;15.35;;;;;;;3.59;74.03;98156.76;1705634;84;21162;-60
2021/03/17 11:03:40;;;;;;;24.40;14.73;;;;;;;3.58;74.26;98152.51;1705592;84;21570;-60
2021/03/17 11:06:23;;;;;;;28.45;18.00;;;;;;;3.53;74.54;98151.81;1705733;84;21086;-61
2021/03/17 11:09:06;;;;;;;25.50;16.62;;;;;;;3.54;74.91;98145.78;1691541;84;21222;-61
2021/03/17 11:11:53;;;;;;;37.80;25.08;;;;;;;3.53;74.76;98171.94;1705517;84;21503;-62
2021/03/17 11:14:37;;;;;;;34.00;21.65;;;;;;;3.51;75.06;98151.03;1705576;84;21063;-60
2021/03/17 11:17:07;;;;;;;28.07;16.57;;;;;;;3.51;75.11;98152.31;1705508;83;21701;-61
2021/03/17 11:19:37;;;;;;;23.92;16.75;;;;;;;3.52;75.34;98152.70;1705576;84;21185;-62
2021/03/17 11:22:04;;;;;;;22.50;16.02;;;;;;;3.52;75.55;98150.14;1705202;84;21856;-62
2021/03/17 11:24:32;;;;;;;21.57;13.28;;;;;;;3.49;75.54;98154.93;1704832;82;21183;-63
2021/03/17 11:26:59;;;;;;;23.10;14.73;;;;;;;3.43;75.78;98156.41;1704668;82;21678;-61
2021/03/17 11:29:29;;;;;;;23.90;15.72;;;;;;;3.39;75.95;98148.44;1720989;83;21614;-61
2021/03/17 11:32:06;;;;;;;28.20;19.12;;;;;;;3.37;76.26;98150.22;1696272;83;21181;-60
2021/03/17 11:34:34;;;;;;;19.85;12.90;;;;;;;3.37;76.51;98153.62;1680665;85;22327;-60
2021/03/17 11:37:01;;;;;;;29.55;15.70;;;;;;;3.39;76.47;98150.56;1680547;85;21552;-61
2021/03/17 11:39:30;;;;;;;19.40;13.72;;;;;;;3.41;76.70;98147.47;1680628;85;21156;-61
2021/03/17 11:41:58;;;;;;;17.73;12.50;;;;;;;3.43;76.83;98157.70;1680614;85;21598;-63
2021/03/17 11:44:25;;;;;;;21.05;13.85;;;;;;;3.41;76.96;98145.34;1680740;85;21080;-61
2021/03/17 11:46:53;;;;;;;18.82;12.90;;;;;;;3.39;77.15;98157.44;1680613;85;22421;-60
2021/03/17 11:49:22;;;;;;;22.77;13.55;;;;;;;3.37;77.47;98142.51;1680575;85;21108;-60
2021/03/17 11:51:50;;;;;;;21.35;15.00;;;;;;;3.35;77.75;98155.41;1680559;85;21132;-62
2021/03/17 11:54:18;;;;;;;23.77;13.53;;;;;;;3.38;77.81;98141.62;1680610;85;21155;-61
2021/03/17 11:56:46;;;;;;;22.98;12.75;;;;;;;3.37;77.53;98154.07;1680654;85;21081;-60
2021/03/17 11:59:14;;;;;;;23.90;13.50;;;;;;;3.36;77.72;98155.80;1680587;85;21125;-61